createdAt,value
2023-03-05T00:00:33.009Z,3.05
2023-03-05T00:05:36.699Z,3.12
2023-03-05T00:10:41.708Z,4.75
2023-03-05T00:15:45.408Z,3.37
2023-03-05T00:20:49.688Z,4.10
2023-03-05T00:25:54.876Z,3.03
2023-03-05T00:31:01.441Z,3.22
2023-03-05T00:36:07.663Z,2.87
2023-03-05T00:41:12.717Z,2.40
2023-03-05T00:46:16.567Z,2.25
2023-03-05T00:51:20.556Z,3.58
2023-03-05T00:56:25.755Z,3.03
2023-03-05T01:01:29.670Z,3.42
2023-03-05T01:06:33.499Z,3.10
2023-03-05T01:11:39.114Z,3.47
2023-03-05T01:16:42.865Z,3.12
2023-03-05T01:21:47.008Z,3.12
2023-03-05T01:26:52.535Z,2.45
2023-03-05T01:31:56.273Z,2.20
2023-03-05T01:36:59.958Z,2.87
2023-03-05T01:42:05.965Z,3.55
2023-03-05T01:47:09.680Z,4.40
2023-03-05T01:52:18.784Z,3.90
2023-03-05T01:57:27.762Z,2.65
2023-03-05T02:02:31.930Z,3.58
2023-03-05T02:07:37.275Z,3.35
2023-03-05T02:12:42.394Z,4.05
2023-03-05T02:17:46.209Z,3.08
2023-03-05T02:22:51.456Z,3.67
2023-03-05T02:27:59.063Z,2.95
2023-03-05T02:33:03.040Z,2.83
2023-03-05T02:38:08.253Z,2.80
2023-03-05T02:43:12.656Z,3.67
2023-03-05T02:48:16.730Z,3.65
2023-03-05T02:53:23.083Z,4.43
2023-03-05T02:58:27.706Z,4.50
2023-03-05T03:03:31.758Z,4.90
2023-03-05T03:08:37.423Z,4.12
2023-03-05T03:13:41.195Z,4.40
2023-03-05T03:18:47.455Z,5.30
2023-03-05T03:23:52.625Z,4.37
2023-03-05T03:28:56.445Z,4.95
2023-03-05T03:34:00.170Z,5.57
2023-03-05T03:39:05.920Z,4.68
2023-03-05T03:44:10.753Z,6.15
2023-03-05T03:49:17.765Z,5.00
2023-03-05T03:54:23.530Z,4.90
2023-03-05T03:59:27.350Z,5.10
2023-03-05T04:04:31.314Z,5.15
2023-03-05T04:09:36.382Z,4.53
2023-03-05T04:14:40.080Z,4.40
2023-03-05T04:19:44.373Z,5.15
2023-03-05T04:24:49.465Z,5.82
2023-03-05T04:29:53.238Z,5.45
2023-03-05T04:34:57.421Z,5.18
2023-03-05T04:40:02.596Z,6.70
2023-03-05T04:45:07.776Z,5.60
2023-03-05T04:50:12.616Z,6.05
2023-03-05T04:55:19.029Z,5.10
2023-03-05T05:00:23.306Z,5.82
2023-03-05T05:05:29.309Z,5.80
2023-03-05T05:10:34.433Z,5.45
2023-03-05T05:15:38.115Z,5.70
2023-03-05T05:20:41.813Z,6.87
2023-03-05T05:25:46.868Z,5.60
2023-03-05T05:30:50.732Z,6.30
2023-03-05T05:35:54.488Z,5.93
2023-03-05T05:41:05.742Z,4.57
2023-03-05T05:46:12.906Z,5.53
2023-03-05T05:51:19.117Z,5.30
2023-03-05T05:56:24.206Z,6.70
2023-03-05T06:01:30.339Z,4.40
2023-03-05T06:06:34.971Z,4.60
2023-03-05T06:11:40.109Z,4.70
2023-03-05T06:16:43.880Z,5.03
2023-03-05T06:21:47.634Z,4.37
2023-03-05T06:26:52.738Z,4.00
2023-03-05T06:31:56.594Z,3.83
2023-03-05T06:37:00.292Z,5.45
2023-03-05T06:42:05.783Z,4.53
2023-03-05T06:47:10.588Z,7.90
2023-03-05T06:52:14.357Z,4.68
2023-03-05T06:57:19.426Z,3.87
2023-03-05T07:02:23.294Z,4.87
2023-03-05T07:07:27.089Z,4.20
2023-03-05T07:12:32.411Z,4.18
2023-03-05T07:17:36.095Z,4.25
2023-03-05T07:22:39.812Z,3.65
2023-03-05T07:27:44.914Z,3.40
2023-03-05T07:32:48.782Z,2.70
2023-03-05T07:37:52.508Z,2.22
2023-03-05T07:42:57.553Z,2.62
2023-03-05T07:53:07.981Z,2.53
2023-03-05T07:58:13.802Z,2.47
2023-03-05T08:03:17.595Z,3.58
2023-03-05T08:08:21.352Z,2.37
2023-03-05T08:13:26.432Z,2.53
2023-03-05T08:18:30.159Z,2.58
2023-03-05T08:23:34.448Z,2.40
2023-03-05T08:28:39.554Z,2.50
2023-03-05T08:33:43.760Z,2.40
2023-03-05T08:38:48.555Z,2.45
2023-03-05T08:43:53.644Z,3.53
2023-03-05T08:48:57.396Z,2.12
2023-03-05T08:54:01.870Z,2.10
2023-03-05T08:59:07.224Z,2.08
2023-03-05T09:04:11.097Z,1.87
2023-03-05T09:09:14.864Z,2.50
2023-03-05T09:14:19.958Z,1.87
2023-03-05T09:19:23.943Z,2.20
2023-03-05T09:24:27.838Z,2.17
2023-03-05T09:29:33.168Z,2.47
2023-03-05T09:34:37.111Z,2.08
2023-03-05T09:39:40.935Z,2.67
2023-03-05T09:44:51.857Z,2.30
2023-03-05T09:50:02.445Z,1.83
2023-03-05T09:55:14.174Z,1.20
2023-03-05T10:00:27.967Z,0.68
2023-03-05T10:05:46.950Z,0.77
2023-03-05T10:10:53.929Z,1.12
2023-03-05T10:16:10.128Z,0.85
2023-03-05T10:21:16.823Z,1.52
2023-03-05T10:26:43.385Z,1.23
2023-03-05T10:32:08.612Z,0.98
2023-03-05T10:37:33.734Z,1.50
2023-03-05T10:42:45.504Z,1.10
2023-03-05T10:47:56.176Z,0.80
2023-03-05T10:53:14.027Z,0.77
2023-03-05T10:58:18.292Z,0.73
2023-03-05T11:03:23.454Z,0.93
2023-03-05T11:08:30.960Z,1.02
2023-03-05T11:13:35.207Z,0.93
2023-03-05T11:18:40.328Z,1.08
2023-03-05T11:23:44.272Z,1.00
2023-03-05T11:28:59.302Z,0.82
2023-03-05T11:34:08.419Z,1.75
2023-03-05T11:39:16.889Z,0.95
2023-03-05T11:44:24.524Z,0.70
2023-03-05T11:49:33.472Z,0.90
2023-03-05T11:54:48.917Z,1.10
2023-03-05T11:59:56.245Z,1.00
2023-03-05T12:05:03.303Z,0.80
2023-03-05T12:10:08.203Z,1.10
2023-03-05T12:15:34.922Z,1.00
2023-03-05T12:20:47.137Z,1.12
2023-03-05T12:25:52.596Z,1.27
2023-03-05T12:31:01.584Z,1.35
2023-03-05T12:36:37.813Z,1.12
2023-03-05T12:41:41.836Z,0.75
2023-03-05T12:46:49.157Z,0.73
2023-03-05T12:51:56.360Z,1.12
2023-03-05T12:57:02.479Z,0.80
2023-03-05T13:02:21.687Z,0.77
2023-03-05T13:07:27.185Z,0.60
2023-03-05T13:12:31.429Z,0.68
2023-03-05T13:17:39.175Z,0.70
2023-03-05T13:22:44.335Z,0.55
2023-03-05T13:27:48.300Z,0.68
2023-03-05T13:32:53.936Z,0.60
2023-03-05T13:37:59.242Z,0.88
2023-03-05T13:43:13.578Z,0.98
2023-03-05T13:48:21.054Z,0.75
2023-03-05T13:53:29.196Z,0.65
2023-03-05T13:58:48.315Z,0.90
2023-03-05T14:03:53.973Z,2.90
2023-03-05T14:09:06.205Z,0.75
2023-03-05T14:14:17.918Z,2.03
2023-03-05T14:19:42.980Z,1.45
2023-03-05T14:24:53.742Z,1.30
2023-03-05T14:29:57.699Z,1.70
2023-03-05T14:35:04.256Z,2.17
2023-03-05T14:40:20.649Z,1.83
2023-03-05T14:45:26.663Z,1.80
2023-03-05T14:50:33.241Z,2.33
2023-03-05T14:55:39.251Z,3.37
2023-03-05T15:00:44.283Z,2.40
2023-03-05T15:05:51.765Z,3.22
2023-03-05T15:10:57.651Z,5.43
2023-03-05T15:16:01.634Z,3.97
2023-03-05T15:21:05.710Z,7.03
2023-03-05T15:26:14.063Z,5.65
2023-03-05T15:36:21.896Z,2.03
2023-03-05T15:41:27.068Z,2.33
2023-03-05T15:46:31.050Z,2.87
2023-03-05T15:51:34.826Z,3.78
2023-03-05T15:56:41.818Z,2.47
2023-03-05T16:01:49.054Z,1.87
2023-03-05T16:06:52.787Z,2.70
2023-03-05T16:11:57.996Z,1.60
2023-03-05T16:17:04.311Z,1.60
2023-03-05T16:22:08.057Z,1.92
2023-03-05T16:27:13.317Z,1.37
2023-03-05T16:32:17.897Z,1.50
2023-03-05T16:37:23.933Z,2.00
2023-03-05T16:42:29.048Z,1.45
2023-03-05T16:47:32.818Z,1.40
2023-03-05T16:52:36.836Z,2.12
2023-03-05T16:57:42.183Z,2.20
2023-03-05T17:02:46.156Z,5.20
2023-03-05T17:07:49.877Z,7.15
2023-03-05T17:12:55.002Z,4.97
2023-03-05T17:17:58.769Z,2.30
2023-03-05T17:23:02.936Z,1.33
2023-03-05T17:28:08.114Z,2.15
2023-03-05T17:33:12.476Z,2.25
2023-03-05T17:38:16.193Z,2.75
2023-03-05T17:43:21.917Z,2.40
2023-03-05T17:48:25.878Z,3.95
2023-03-05T17:53:29.676Z,6.05
2023-03-05T17:58:34.741Z,3.05
2023-03-05T18:03:38.769Z,2.17
2023-03-05T18:08:42.605Z,3.20
2023-03-05T18:13:47.856Z,2.50
2023-03-05T18:18:51.769Z,2.05
2023-03-05T18:23:55.532Z,3.00
2023-03-05T18:29:00.621Z,1.90
2023-03-05T18:34:04.382Z,4.18
2023-03-05T18:39:08.169Z,6.05
2023-03-05T18:44:14.007Z,5.80
2023-03-05T18:49:17.727Z,1.75
2023-03-05T18:54:21.468Z,1.60
2023-03-05T18:59:26.566Z,3.20
2023-03-05T19:04:30.342Z,1.85
2023-03-05T19:09:48.857Z,2.10
2023-03-05T19:14:53.923Z,2.70
2023-03-05T19:19:59.141Z,2.50
2023-03-05T19:25:03.539Z,6.12
2023-03-05T19:30:16.204Z,3.87
2023-03-05T19:35:20.100Z,2.78
2023-03-05T19:40:24.033Z,2.90
2023-03-05T19:45:32.740Z,2.80
2023-03-05T19:50:36.612Z,5.87
2023-03-05T19:55:40.867Z,3.85
2023-03-05T20:00:45.961Z,2.50
2023-03-05T20:05:49.672Z,2.28
2023-03-05T20:10:53.387Z,3.45
2023-03-05T20:15:59.563Z,2.17
2023-03-05T20:21:03.460Z,1.80
2023-03-05T20:26:07.167Z,2.25
2023-03-05T20:31:12.317Z,3.25
2023-03-05T20:36:16.248Z,3.35
2023-03-05T20:41:21.703Z,3.10
2023-03-05T20:46:28.765Z,2.47
2023-03-05T20:51:35.821Z,2.20
2023-03-05T20:56:39.947Z,1.90
2023-03-05T21:01:45.230Z,2.05
2023-03-05T21:06:53.196Z,2.70
2023-03-05T21:11:56.973Z,2.50
2023-03-05T21:17:02.471Z,3.20
2023-03-05T21:22:06.801Z,2.95
2023-03-05T21:27:10.662Z,3.37
2023-03-05T21:32:15.988Z,2.87
2023-03-05T21:37:19.811Z,2.58
2023-03-05T21:42:23.567Z,2.60
2023-03-05T21:47:28.712Z,2.80
2023-03-05T21:52:32.651Z,2.45
2023-03-05T21:57:36.560Z,2.60
2023-03-05T22:02:42.778Z,2.67
2023-03-05T22:07:47.242Z,2.35
2023-03-05T22:12:56.763Z,2.70
2023-03-05T22:18:06.683Z,2.58
2023-03-05T22:23:10.811Z,2.30
2023-03-05T22:28:14.795Z,2.40
2023-03-05T22:33:22.924Z,2.47
2023-03-05T22:38:27.189Z,3.00
2023-03-05T22:43:30.932Z,3.53
2023-03-05T22:48:36.016Z,2.42
2023-03-05T22:53:40.258Z,2.75
2023-03-05T22:58:44.019Z,2.80
2023-03-05T23:03:57.322Z,3.08
2023-03-05T23:09:01.221Z,3.08
2023-03-05T23:14:04.887Z,3.10
2023-03-05T23:19:09.995Z,2.42
2023-03-05T23:24:13.668Z,3.22
2023-03-05T23:29:17.605Z,3.30
2023-03-05T23:34:22.998Z,3.22
2023-03-05T23:39:26.805Z,2.87
2023-03-05T23:44:30.445Z,3.37
2023-03-05T23:49:35.654Z,3.42
2023-03-05T23:54:39.385Z,3.80
2023-03-05T23:59:43.243Z,3.87
